Terminal Aerodrome Forecast
Issued by NWS Corpus Christi, TX

Home | Current Version | Previous Version | Text Only | Print | Product List | Glossary On
Versions: 1 2 3 4 5 6 7 8 9 10 11 12 13 14 15 16 17 18
766
FTUS44 KCRP 282217 AAA
TAFCRP
TAF AMD
KCRP 282217Z 2822/2918 14022G31KT P6SM BKN015 OVC040
      TEMPO 2823/2903 SCT015 BKN025
     FM290600 15015KT P6SM VCSH SCT008 OVC015 PROB30 2911/2916
      VRB15G30KT 3SM TSRA BKN008CB OVC015
     FM291600 29007KT P6SM SCT025 BKN050=

USA.gov is the U.S. government's official web portal to all federal, state and local government web resources and services.